sensor_id;sensor_type;location;lat;lon;timestamp;P1;durP1;ratioP1;P2;durP2;ratioP2
52964;SDS011;42923;53.220;6.528;2022-08-21T00:01:33;9.70;;;5.68;;
52964;SDS011;42923;53.220;6.528;2022-08-21T00:04:04;13.82;;;5.32;;
52964;SDS011;42923;53.220;6.528;2022-08-21T00:06:31;11.57;;;5.75;;
52964;SDS011;42923;53.220;6.528;2022-08-21T00:08:59;9.70;;;6.50;;
52964;SDS011;42923;53.220;6.528;2022-08-21T00:11:25;14.98;;;6.45;;
52964;SDS011;42923;53.220;6.528;2022-08-21T00:13:52;17.17;;;6.57;;
52964;SDS011;42923;53.220;6.528;2022-08-21T00:16:18;10.27;;;5.93;;
52964;SDS011;42923;53.220;6.528;2022-08-21T00:18:44;13.95;;;6.90;;
52964;SDS011;42923;53.220;6.528;2022-08-21T00:21:11;15.05;;;6.53;;
52964;SDS011;42923;53.220;6.528;2022-08-21T00:23:37;12.55;;;6.03;;
52964;SDS011;42923;53.220;6.528;2022-08-21T00:26:03;10.77;;;6.80;;
52964;SDS011;42923;53.220;6.528;2022-08-21T00:28:30;16.73;;;7.22;;
52964;SDS011;42923;53.220;6.528;2022-08-21T00:30:56;11.00;;;6.20;;
52964;SDS011;42923;53.220;6.528;2022-08-21T00:33:23;11.88;;;6.47;;
52964;SDS011;42923;53.220;6.528;2022-08-21T00:35:50;10.05;;;7.28;;
52964;SDS011;42923;53.220;6.528;2022-08-21T00:38:16;10.93;;;7.25;;
52964;SDS011;42923;53.220;6.528;2022-08-21T00:40:50;12.27;;;7.30;;
52964;SDS011;42923;53.220;6.528;2022-08-21T00:43:23;10.05;;;6.72;;
52964;SDS011;42923;53.220;6.528;2022-08-21T00:45:53;13.00;;;8.40;;
52964;SDS011;42923;53.220;6.528;2022-08-21T00:48:19;20.25;;;9.10;;
52964;SDS011;42923;53.220;6.528;2022-08-21T00:50:50;10.52;;;7.82;;
52964;SDS011;42923;53.220;6.528;2022-08-21T00:53:31;12.38;;;7.47;;
52964;SDS011;42923;53.220;6.528;2022-08-21T00:55:59;13.88;;;8.68;;
52964;SDS011;42923;53.220;6.528;2022-08-21T00:58:28;13.68;;;7.85;;
52964;SDS011;42923;53.220;6.528;2022-08-21T01:00:58;11.38;;;8.23;;
52964;SDS011;42923;53.220;6.528;2022-08-21T01:03:26;12.73;;;7.95;;
52964;SDS011;42923;53.220;6.528;2022-08-21T01:05:52;15.50;;;7.75;;
52964;SDS011;42923;53.220;6.528;2022-08-21T01:08:18;16.88;;;9.20;;
52964;SDS011;42923;53.220;6.528;2022-08-21T01:10:44;14.95;;;9.32;;
52964;SDS011;42923;53.220;6.528;2022-08-21T01:13:12;14.93;;;8.98;;
52964;SDS011;42923;53.220;6.528;2022-08-21T01:15:42;15.70;;;9.38;;
52964;SDS011;42923;53.220;6.528;2022-08-21T01:18:10;14.68;;;10.60;;
52964;SDS011;42923;53.220;6.528;2022-08-21T01:20:38;21.35;;;10.57;;
52964;SDS011;42923;53.220;6.528;2022-08-21T01:23:07;15.43;;;10.35;;
52964;SDS011;42923;53.220;6.528;2022-08-21T01:25:33;15.50;;;10.90;;
52964;SDS011;42923;53.220;6.528;2022-08-21T01:28:01;15.60;;;9.88;;
52964;SDS011;42923;53.220;6.528;2022-08-21T01:30:31;14.95;;;9.48;;
52964;SDS011;42923;53.220;6.528;2022-08-21T01:33:00;12.43;;;9.27;;
52964;SDS011;42923;53.220;6.528;2022-08-21T01:35:26;13.15;;;9.35;;
52964;SDS011;42923;53.220;6.528;2022-08-21T01:37:51;14.32;;;9.82;;
52964;SDS011;42923;53.220;6.528;2022-08-21T01:40:18;20.00;;;10.25;;
52964;SDS011;42923;53.220;6.528;2022-08-21T01:42:44;16.73;;;10.43;;
52964;SDS011;42923;53.220;6.528;2022-08-21T01:45:11;18.25;;;10.43;;
52964;SDS011;42923;53.220;6.528;2022-08-21T01:47:38;18.27;;;9.80;;
52964;SDS011;42923;53.220;6.528;2022-08-21T01:50:06;16.25;;;10.07;;
52964;SDS011;42923;53.220;6.528;2022-08-21T01:52:35;20.40;;;10.63;;
52964;SDS011;42923;53.220;6.528;2022-08-21T01:55:00;17.35;;;10.23;;
52964;SDS011;42923;53.220;6.528;2022-08-21T01:57:26;17.73;;;9.70;;
52964;SDS011;42923;53.220;6.528;2022-08-21T01:59:52;13.40;;;10.13;;
52964;SDS011;42923;53.220;6.528;2022-08-21T02:02:18;19.50;;;10.80;;
52964;SDS011;42923;53.220;6.528;2022-08-21T02:04:44;20.92;;;11.13;;
52964;SDS011;42923;53.220;6.528;2022-08-21T02:07:10;19.13;;;10.27;;
52964;SDS011;42923;53.220;6.528;2022-08-21T02:09:36;17.38;;;11.02;;
52964;SDS011;42923;53.220;6.528;2022-08-21T02:12:02;18.33;;;10.98;;
52964;SDS011;42923;53.220;6.528;2022-08-21T02:14:28;17.02;;;10.98;;
52964;SDS011;42923;53.220;6.528;2022-08-21T02:16:54;26.00;;;11.05;;
52964;SDS011;42923;53.220;6.528;2022-08-21T02:19:19;15.82;;;10.98;;
52964;SDS011;42923;53.220;6.528;2022-08-21T02:21:45;16.90;;;11.48;;
52964;SDS011;42923;53.220;6.528;2022-08-21T02:24:11;15.55;;;10.32;;
52964;SDS011;42923;53.220;6.528;2022-08-21T02:26:37;20.15;;;10.60;;
52964;SDS011;42923;53.220;6.528;2022-08-21T02:29:03;25.70;;;10.70;;
52964;SDS011;42923;53.220;6.528;2022-08-21T02:31:29;19.92;;;11.40;;
52964;SDS011;42923;53.220;6.528;2022-08-21T02:33:56;22.88;;;11.90;;
52964;SDS011;42923;53.220;6.528;2022-08-21T02:36:22;23.02;;;12.65;;
52964;SDS011;42923;53.220;6.528;2022-08-21T02:38:48;16.98;;;12.85;;
52964;SDS011;42923;53.220;6.528;2022-08-21T02:41:15;25.50;;;13.07;;
52964;SDS011;42923;53.220;6.528;2022-08-21T02:43:42;19.27;;;12.52;;
52964;SDS011;42923;53.220;6.528;2022-08-21T02:46:09;19.70;;;12.82;;
52964;SDS011;42923;53.220;6.528;2022-08-21T02:48:37;19.33;;;11.93;;
52964;SDS011;42923;53.220;6.528;2022-08-21T02:51:05;15.98;;;11.70;;
52964;SDS011;42923;53.220;6.528;2022-08-21T02:53:33;22.42;;;12.63;;
52964;SDS011;42923;53.220;6.528;2022-08-21T02:56:00;21.95;;;11.80;;
52964;SDS011;42923;53.220;6.528;2022-08-21T02:58:29;19.30;;;12.95;;
52964;SDS011;42923;53.220;6.528;2022-08-21T03:00:57;22.10;;;12.75;;
52964;SDS011;42923;53.220;6.528;2022-08-21T03:03:23;24.73;;;13.23;;
52964;SDS011;42923;53.220;6.528;2022-08-21T03:05:50;20.85;;;13.15;;
52964;SDS011;42923;53.220;6.528;2022-08-21T03:08:16;15.40;;;11.32;;
52964;SDS011;42923;53.220;6.528;2022-08-21T03:10:45;21.33;;;12.30;;
52964;SDS011;42923;53.220;6.528;2022-08-21T03:13:12;20.02;;;11.82;;
52964;SDS011;42923;53.220;6.528;2022-08-21T03:15:40;20.88;;;12.60;;
52964;SDS011;42923;53.220;6.528;2022-08-21T03:18:06;27.73;;;13.60;;
52964;SDS011;42923;53.220;6.528;2022-08-21T03:20:34;17.55;;;12.90;;
52964;SDS011;42923;53.220;6.528;2022-08-21T03:23:01;22.80;;;13.20;;
52964;SDS011;42923;53.220;6.528;2022-08-21T03:25:28;21.40;;;12.90;;
52964;SDS011;42923;53.220;6.528;2022-08-21T03:27:57;18.60;;;13.82;;
52964;SDS011;42923;53.220;6.528;2022-08-21T03:30:24;22.73;;;13.45;;
52964;SDS011;42923;53.220;6.528;2022-08-21T03:32:50;16.10;;;12.10;;
52964;SDS011;42923;53.220;6.528;2022-08-21T03:35:16;17.95;;;13.13;;
52964;SDS011;42923;53.220;6.528;2022-08-21T03:37:42;19.33;;;12.80;;
52964;SDS011;42923;53.220;6.528;2022-08-21T03:40:09;22.58;;;13.75;;
52964;SDS011;42923;53.220;6.528;2022-08-21T03:42:36;23.40;;;14.00;;
52964;SDS011;42923;53.220;6.528;2022-08-21T03:45:02;17.98;;;12.93;;
52964;SDS011;42923;53.220;6.528;2022-08-21T03:47:29;21.85;;;13.13;;
52964;SDS011;42923;53.220;6.528;2022-08-21T03:49:55;23.98;;;13.23;;
52964;SDS011;42923;53.220;6.528;2022-08-21T03:52:20;16.48;;;12.85;;
52964;SDS011;42923;53.220;6.528;2022-08-21T03:54:46;17.92;;;12.63;;
52964;SDS011;42923;53.220;6.528;2022-08-21T03:57:12;22.25;;;13.98;;
52964;SDS011;42923;53.220;6.528;2022-08-21T03:59:39;21.20;;;14.20;;
52964;SDS011;42923;53.220;6.528;2022-08-21T04:02:05;21.50;;;13.88;;
52964;SDS011;42923;53.220;6.528;2022-08-21T04:04:32;19.45;;;13.85;;
52964;SDS011;42923;53.220;6.528;2022-08-21T04:06:58;21.00;;;13.02;;
52964;SDS011;42923;53.220;6.528;2022-08-21T04:09:24;20.52;;;14.07;;
52964;SDS011;42923;53.220;6.528;2022-08-21T04:11:51;20.35;;;13.68;;
52964;SDS011;42923;53.220;6.528;2022-08-21T04:14:17;21.02;;;13.85;;
52964;SDS011;42923;53.220;6.528;2022-08-21T04:16:43;20.83;;;14.32;;
52964;SDS011;42923;53.220;6.528;2022-08-21T04:19:10;21.25;;;13.50;;
52964;SDS011;42923;53.220;6.528;2022-08-21T04:21:38;19.55;;;13.45;;
52964;SDS011;42923;53.220;6.528;2022-08-21T04:24:06;16.95;;;12.98;;
52964;SDS011;42923;53.220;6.528;2022-08-21T04:26:33;22.95;;;13.45;;
52964;SDS011;42923;53.220;6.528;2022-08-21T04:28:59;18.80;;;13.30;;
52964;SDS011;42923;53.220;6.528;2022-08-21T04:31:25;21.00;;;13.20;;
52964;SDS011;42923;53.220;6.528;2022-08-21T04:33:53;23.55;;;12.27;;
52964;SDS011;42923;53.220;6.528;2022-08-21T04:36:19;24.90;;;13.52;;
52964;SDS011;42923;53.220;6.528;2022-08-21T04:38:45;21.45;;;14.07;;
52964;SDS011;42923;53.220;6.528;2022-08-21T04:41:11;17.15;;;12.50;;
52964;SDS011;42923;53.220;6.528;2022-08-21T04:43:37;21.77;;;13.05;;
52964;SDS011;42923;53.220;6.528;2022-08-21T04:46:04;18.77;;;13.52;;
52964;SDS011;42923;53.220;6.528;2022-08-21T04:48:30;19.42;;;14.32;;
52964;SDS011;42923;53.220;6.528;2022-08-21T04:53:42;17.45;;;12.65;;
52964;SDS011;42923;53.220;6.528;2022-08-21T04:56:19;17.20;;;12.27;;
52964;SDS011;42923;53.220;6.528;2022-08-21T04:58:58;17.17;;;12.20;;
52964;SDS011;42923;53.220;6.528;2022-08-21T05:01:28;16.77;;;12.55;;
52964;SDS011;42923;53.220;6.528;2022-08-21T05:03:58;24.05;;;12.07;;
52964;SDS011;42923;53.220;6.528;2022-08-21T05:06:25;21.95;;;13.27;;
52964;SDS011;42923;53.220;6.528;2022-08-21T05:08:54;20.58;;;12.32;;
52964;SDS011;42923;53.220;6.528;2022-08-21T05:11:20;14.93;;;11.65;;
52964;SDS011;42923;53.220;6.528;2022-08-21T05:13:47;21.38;;;11.65;;
52964;SDS011;42923;53.220;6.528;2022-08-21T05:16:13;18.25;;;12.18;;
52964;SDS011;42923;53.220;6.528;2022-08-21T05:18:41;29.08;;;11.90;;
52964;SDS011;42923;53.220;6.528;2022-08-21T05:21:07;16.23;;;11.50;;
52964;SDS011;42923;53.220;6.528;2022-08-21T05:23:33;19.38;;;11.85;;
52964;SDS011;42923;53.220;6.528;2022-08-21T05:25:58;17.48;;;11.23;;
52964;SDS011;42923;53.220;6.528;2022-08-21T05:28:24;13.35;;;11.23;;
52964;SDS011;42923;53.220;6.528;2022-08-21T05:30:51;18.77;;;11.95;;
52964;SDS011;42923;53.220;6.528;2022-08-21T05:33:17;15.60;;;10.65;;
52964;SDS011;42923;53.220;6.528;2022-08-21T05:35:42;17.00;;;10.57;;
52964;SDS011;42923;53.220;6.528;2022-08-21T05:38:08;15.07;;;10.57;;
52964;SDS011;42923;53.220;6.528;2022-08-21T05:40:34;18.38;;;11.32;;
52964;SDS011;42923;53.220;6.528;2022-08-21T05:42:59;18.77;;;10.02;;
52964;SDS011;42923;53.220;6.528;2022-08-21T05:45:31;20.25;;;10.55;;
52964;SDS011;42923;53.220;6.528;2022-08-21T05:47:58;12.95;;;9.35;;
52964;SDS011;42923;53.220;6.528;2022-08-21T05:50:30;18.08;;;9.73;;
52964;SDS011;42923;53.220;6.528;2022-08-21T05:52:56;16.10;;;8.88;;
52964;SDS011;42923;53.220;6.528;2022-08-21T05:55:22;17.95;;;10.07;;
52964;SDS011;42923;53.220;6.528;2022-08-21T05:57:47;19.40;;;9.77;;
52964;SDS011;42923;53.220;6.528;2022-08-21T06:00:13;20.95;;;10.15;;
52964;SDS011;42923;53.220;6.528;2022-08-21T06:02:40;18.27;;;9.10;;
52964;SDS011;42923;53.220;6.528;2022-08-21T06:05:06;17.52;;;9.32;;
52964;SDS011;42923;53.220;6.528;2022-08-21T06:07:32;16.05;;;9.85;;
52964;SDS011;42923;53.220;6.528;2022-08-21T06:09:58;13.20;;;9.48;;
52964;SDS011;42923;53.220;6.528;2022-08-21T06:12:24;14.38;;;8.85;;
52964;SDS011;42923;53.220;6.528;2022-08-21T06:14:50;16.13;;;8.50;;
52964;SDS011;42923;53.220;6.528;2022-08-21T06:17:17;14.63;;;8.70;;
52964;SDS011;42923;53.220;6.528;2022-08-21T06:19:43;14.88;;;8.75;;
52964;SDS011;42923;53.220;6.528;2022-08-21T06:22:09;16.83;;;8.40;;
52964;SDS011;42923;53.220;6.528;2022-08-21T06:24:34;15.07;;;7.35;;
52964;SDS011;42923;53.220;6.528;2022-08-21T06:27:05;16.10;;;7.95;;
52964;SDS011;42923;53.220;6.528;2022-08-21T06:29:31;13.57;;;6.95;;
52964;SDS011;42923;53.220;6.528;2022-08-21T06:31:57;17.15;;;7.70;;
52964;SDS011;42923;53.220;6.528;2022-08-21T06:34:23;19.42;;;7.22;;
52964;SDS011;42923;53.220;6.528;2022-08-21T06:36:48;17.73;;;6.95;;
52964;SDS011;42923;53.220;6.528;2022-08-21T06:39:14;13.43;;;6.93;;
52964;SDS011;42923;53.220;6.528;2022-08-21T06:41:40;11.32;;;6.40;;
52964;SDS011;42923;53.220;6.528;2022-08-21T06:44:05;15.27;;;5.97;;
52964;SDS011;42923;53.220;6.528;2022-08-21T06:46:31;12.50;;;5.75;;
52964;SDS011;42923;53.220;6.528;2022-08-21T06:48:57;10.43;;;5.88;;
52964;SDS011;42923;53.220;6.528;2022-08-21T06:51:24;10.77;;;5.57;;
52964;SDS011;42923;53.220;6.528;2022-08-21T06:53:53;13.98;;;5.78;;
52964;SDS011;42923;53.220;6.528;2022-08-21T06:56:19;12.57;;;5.72;;
52964;SDS011;42923;53.220;6.528;2022-08-21T06:58:45;13.93;;;5.30;;
52964;SDS011;42923;53.220;6.528;2022-08-21T07:01:11;14.35;;;5.25;;
52964;SDS011;42923;53.220;6.528;2022-08-21T07:03:40;8.85;;;4.78;;
52964;SDS011;42923;53.220;6.528;2022-08-21T07:06:07;9.77;;;4.68;;
52964;SDS011;42923;53.220;6.528;2022-08-21T07:08:35;10.90;;;4.18;;
52964;SDS011;42923;53.220;6.528;2022-08-21T07:11:03;11.32;;;4.20;;
52964;SDS011;42923;53.220;6.528;2022-08-21T07:13:32;13.57;;;4.05;;
52964;SDS011;42923;53.220;6.528;2022-08-21T07:15:58;11.63;;;4.15;;
52964;SDS011;42923;53.220;6.528;2022-08-21T07:18:24;8.02;;;3.20;;
52964;SDS011;42923;53.220;6.528;2022-08-21T07:20:49;11.48;;;3.83;;
52964;SDS011;42923;53.220;6.528;2022-08-21T07:23:21;9.00;;;3.45;;
52964;SDS011;42923;53.220;6.528;2022-08-21T07:25:53;15.68;;;3.67;;
52964;SDS011;42923;53.220;6.528;2022-08-21T07:28:19;9.23;;;3.28;;
52964;SDS011;42923;53.220;6.528;2022-08-21T07:30:45;8.77;;;3.20;;
52964;SDS011;42923;53.220;6.528;2022-08-21T07:33:11;10.30;;;3.00;;
52964;SDS011;42923;53.220;6.528;2022-08-21T07:35:37;10.27;;;3.35;;
52964;SDS011;42923;53.220;6.528;2022-08-21T07:38:04;8.25;;;3.05;;
52964;SDS011;42923;53.220;6.528;2022-08-21T07:40:29;13.82;;;3.15;;
52964;SDS011;42923;53.220;6.528;2022-08-21T07:42:55;5.72;;;2.38;;
52964;SDS011;42923;53.220;6.528;2022-08-21T07:45:21;6.72;;;3.08;;
52964;SDS011;42923;53.220;6.528;2022-08-21T07:47:49;11.75;;;3.40;;
52964;SDS011;42923;53.220;6.528;2022-08-21T07:50:15;10.32;;;3.30;;
52964;SDS011;42923;53.220;6.528;2022-08-21T07:52:41;12.57;;;3.17;;
52964;SDS011;42923;53.220;6.528;2022-08-21T07:55:13;6.93;;;2.67;;
52964;SDS011;42923;53.220;6.528;2022-08-21T07:57:41;12.10;;;3.00;;
52964;SDS011;42923;53.220;6.528;2022-08-21T08:00:08;5.47;;;2.13;;
52964;SDS011;42923;53.220;6.528;2022-08-21T08:02:38;5.82;;;2.70;;
52964;SDS011;42923;53.220;6.528;2022-08-21T08:05:05;10.50;;;2.60;;
52964;SDS011;42923;53.220;6.528;2022-08-21T08:07:34;7.75;;;2.78;;
52964;SDS011;42923;53.220;6.528;2022-08-21T08:10:00;11.13;;;2.85;;
52964;SDS011;42923;53.220;6.528;2022-08-21T08:12:26;10.07;;;3.20;;
52964;SDS011;42923;53.220;6.528;2022-08-21T08:14:58;6.15;;;2.88;;
52964;SDS011;42923;53.220;6.528;2022-08-21T08:17:25;6.82;;;2.50;;
52964;SDS011;42923;53.220;6.528;2022-08-21T08:19:51;13.98;;;3.80;;
52964;SDS011;42923;53.220;6.528;2022-08-21T08:22:17;9.43;;;2.75;;
52964;SDS011;42923;53.220;6.528;2022-08-21T08:24:46;8.43;;;3.03;;
52964;SDS011;42923;53.220;6.528;2022-08-21T08:27:13;12.40;;;3.05;;
52964;SDS011;42923;53.220;6.528;2022-08-21T08:29:39;11.73;;;3.25;;
52964;SDS011;42923;53.220;6.528;2022-08-21T08:32:05;10.27;;;3.20;;
52964;SDS011;42923;53.220;6.528;2022-08-21T08:34:35;16.13;;;3.83;;
52964;SDS011;42923;53.220;6.528;2022-08-21T08:37:02;7.32;;;3.00;;
52964;SDS011;42923;53.220;6.528;2022-08-21T08:39:29;8.45;;;2.75;;
52964;SDS011;42923;53.220;6.528;2022-08-21T08:42:08;7.20;;;2.45;;
52964;SDS011;42923;53.220;6.528;2022-08-21T08:45:05;7.25;;;2.50;;
52964;SDS011;42923;53.220;6.528;2022-08-21T08:47:38;16.88;;;3.88;;
52964;SDS011;42923;53.220;6.528;2022-08-21T08:50:09;7.95;;;2.97;;
52964;SDS011;42923;53.220;6.528;2022-08-21T08:52:52;9.55;;;2.83;;
52964;SDS011;42923;53.220;6.528;2022-08-21T08:55:25;6.35;;;2.83;;
52964;SDS011;42923;53.220;6.528;2022-08-21T08:57:57;11.32;;;2.95;;
52964;SDS011;42923;53.220;6.528;2022-08-21T09:00:23;12.57;;;3.22;;
52964;SDS011;42923;53.220;6.528;2022-08-21T09:02:51;11.02;;;3.58;;
52964;SDS011;42923;53.220;6.528;2022-08-21T09:05:22;5.03;;;2.45;;
52964;SDS011;42923;53.220;6.528;2022-08-21T09:10:38;7.88;;;2.83;;
52964;SDS011;42923;53.220;6.528;2022-08-21T09:13:15;11.73;;;4.35;;
52964;SDS011;42923;53.220;6.528;2022-08-21T09:19:05;8.40;;;2.72;;
52964;SDS011;42923;53.220;6.528;2022-08-21T09:22:01;13.10;;;3.67;;
52964;SDS011;42923;53.220;6.528;2022-08-21T09:24:44;13.63;;;3.80;;
52964;SDS011;42923;53.220;6.528;2022-08-21T09:27:22;14.25;;;3.35;;
52964;SDS011;42923;53.220;6.528;2022-08-21T09:29:51;14.20;;;3.15;;
52964;SDS011;42923;53.220;6.528;2022-08-21T09:32:29;10.05;;;3.35;;
52964;SDS011;42923;53.220;6.528;2022-08-21T09:37:57;8.60;;;2.67;;
52964;SDS011;42923;53.220;6.528;2022-08-21T09:40:30;12.60;;;2.88;;
52964;SDS011;42923;53.220;6.528;2022-08-21T09:42:58;11.07;;;2.58;;
52964;SDS011;42923;53.220;6.528;2022-08-21T09:45:28;9.93;;;3.33;;
52964;SDS011;42923;53.220;6.528;2022-08-21T09:47:55;7.70;;;3.03;;
52964;SDS011;42923;53.220;6.528;2022-08-21T09:50:25;10.70;;;3.15;;
52964;SDS011;42923;53.220;6.528;2022-08-21T09:52:56;11.40;;;4.55;;
52964;SDS011;42923;53.220;6.528;2022-08-21T09:58:12;10.20;;;2.63;;
52964;SDS011;42923;53.220;6.528;2022-08-21T10:00:38;12.00;;;2.97;;
52964;SDS011;42923;53.220;6.528;2022-08-21T10:03:18;11.93;;;3.33;;
52964;SDS011;42923;53.220;6.528;2022-08-21T10:05:58;8.50;;;2.70;;
52964;SDS011;42923;53.220;6.528;2022-08-21T10:08:32;9.23;;;2.55;;
52964;SDS011;42923;53.220;6.528;2022-08-21T10:11:02;9.80;;;2.92;;
52964;SDS011;42923;53.220;6.528;2022-08-21T10:16:37;8.25;;;2.70;;
52964;SDS011;42923;53.220;6.528;2022-08-21T10:19:21;11.07;;;2.65;;
52964;SDS011;42923;53.220;6.528;2022-08-21T10:22:00;9.48;;;2.85;;
52964;SDS011;42923;53.220;6.528;2022-08-21T10:24:39;9.98;;;2.72;;
52964;SDS011;42923;53.220;6.528;2022-08-21T10:29:56;7.75;;;2.70;;
52964;SDS011;42923;53.220;6.528;2022-08-21T10:32:42;8.93;;;2.47;;
52964;SDS011;42923;53.220;6.528;2022-08-21T10:35:14;8.38;;;2.17;;
52964;SDS011;42923;53.220;6.528;2022-08-21T10:38:05;8.85;;;3.15;;
52964;SDS011;42923;53.220;6.528;2022-08-21T10:48:35;9.57;;;3.78;;
52964;SDS011;42923;53.220;6.528;2022-08-21T10:53:56;5.07;;;2.15;;
52964;SDS011;42923;53.220;6.528;2022-08-21T10:56:30;14.18;;;3.08;;
52964;SDS011;42923;53.220;6.528;2022-08-21T10:59:09;5.82;;;2.53;;
52964;SDS011;42923;53.220;6.528;2022-08-21T11:07:26;8.90;;;3.10;;
52964;SDS011;42923;53.220;6.528;2022-08-21T11:09:57;14.57;;;3.58;;
52964;SDS011;42923;53.220;6.528;2022-08-21T11:15:37;10.10;;;3.40;;
52964;SDS011;42923;53.220;6.528;2022-08-21T11:18:22;7.85;;;3.05;;
52964;SDS011;42923;53.220;6.528;2022-08-21T11:23:53;11.90;;;2.70;;
52964;SDS011;42923;53.220;6.528;2022-08-21T11:29:13;7.43;;;2.38;;
52964;SDS011;42923;53.220;6.528;2022-08-21T11:37:16;10.23;;;2.45;;
52964;SDS011;42923;53.220;6.528;2022-08-21T11:42:35;12.35;;;2.75;;
52964;SDS011;42923;53.220;6.528;2022-08-21T11:45:27;6.93;;;2.63;;
52964;SDS011;42923;53.220;6.528;2022-08-21T11:50:48;6.25;;;2.45;;
52964;SDS011;42923;53.220;6.528;2022-08-21T11:53:26;7.75;;;2.53;;
52964;SDS011;42923;53.220;6.528;2022-08-21T11:56:11;7.05;;;2.42;;
52964;SDS011;42923;53.220;6.528;2022-08-21T11:58:44;8.10;;;2.58;;
52964;SDS011;42923;53.220;6.528;2022-08-21T12:01:19;8.18;;;2.92;;
52964;SDS011;42923;53.220;6.528;2022-08-21T12:06:31;11.52;;;3.67;;
52964;SDS011;42923;53.220;6.528;2022-08-21T12:09:00;6.95;;;2.88;;
52964;SDS011;42923;53.220;6.528;2022-08-21T12:12:12;6.80;;;2.58;;
52964;SDS011;42923;53.220;6.528;2022-08-21T12:14:50;5.57;;;2.42;;
52964;SDS011;42923;53.220;6.528;2022-08-21T12:17:34;8.18;;;2.75;;
52964;SDS011;42923;53.220;6.528;2022-08-21T12:20:24;5.82;;;2.20;;
52964;SDS011;42923;53.220;6.528;2022-08-21T12:25:38;7.18;;;2.88;;
52964;SDS011;42923;53.220;6.528;2022-08-21T12:28:25;8.63;;;2.90;;
52964;SDS011;42923;53.220;6.528;2022-08-21T12:30:53;8.15;;;2.72;;
52964;SDS011;42923;53.220;6.528;2022-08-21T12:33:32;5.40;;;2.15;;
52964;SDS011;42923;53.220;6.528;2022-08-21T12:38:44;7.10;;;2.38;;
52964;SDS011;42923;53.220;6.528;2022-08-21T12:41:44;6.00;;;2.08;;
52964;SDS011;42923;53.220;6.528;2022-08-21T12:44:32;10.45;;;2.88;;
52964;SDS011;42923;53.220;6.528;2022-08-21T12:47:15;9.75;;;2.55;;
52964;SDS011;42923;53.220;6.528;2022-08-21T12:50:03;5.35;;;2.63;;
52964;SDS011;42923;53.220;6.528;2022-08-21T12:52:35;7.82;;;2.65;;
52964;SDS011;42923;53.220;6.528;2022-08-21T12:55:06;5.72;;;3.08;;
52964;SDS011;42923;53.220;6.528;2022-08-21T12:57:36;5.53;;;1.90;;
52964;SDS011;42923;53.220;6.528;2022-08-21T13:00:05;3.53;;;1.75;;
52964;SDS011;42923;53.220;6.528;2022-08-21T13:02:39;8.38;;;2.08;;
52964;SDS011;42923;53.220;6.528;2022-08-21T13:05:12;6.93;;;2.03;;
52964;SDS011;42923;53.220;6.528;2022-08-21T13:07:44;6.28;;;1.75;;
52964;SDS011;42923;53.220;6.528;2022-08-21T13:10:28;10.98;;;2.72;;
52964;SDS011;42923;53.220;6.528;2022-08-21T13:12:57;5.70;;;2.17;;
52964;SDS011;42923;53.220;6.528;2022-08-21T13:15:33;7.13;;;2.13;;
52964;SDS011;42923;53.220;6.528;2022-08-21T13:18:02;6.22;;;2.30;;
52964;SDS011;42923;53.220;6.528;2022-08-21T13:23:20;4.03;;;2.15;;
52964;SDS011;42923;53.220;6.528;2022-08-21T13:25:50;7.05;;;2.55;;
52964;SDS011;42923;53.220;6.528;2022-08-21T13:28:16;4.15;;;1.80;;
52964;SDS011;42923;53.220;6.528;2022-08-21T13:30:43;5.90;;;1.90;;
52964;SDS011;42923;53.220;6.528;2022-08-21T13:33:13;5.25;;;2.22;;
52964;SDS011;42923;53.220;6.528;2022-08-21T13:38:26;6.07;;;2.10;;
52964;SDS011;42923;53.220;6.528;2022-08-21T13:40:59;5.55;;;2.13;;
52964;SDS011;42923;53.220;6.528;2022-08-21T13:43:46;7.72;;;2.00;;
52964;SDS011;42923;53.220;6.528;2022-08-21T13:46:22;4.25;;;1.95;;
52964;SDS011;42923;53.220;6.528;2022-08-21T13:48:51;7.50;;;2.65;;
52964;SDS011;42923;53.220;6.528;2022-08-21T13:51:19;5.05;;;2.20;;
52964;SDS011;42923;53.220;6.528;2022-08-21T13:53:46;4.68;;;1.88;;
52964;SDS011;42923;53.220;6.528;2022-08-21T13:58:57;5.97;;;2.50;;
52964;SDS011;42923;53.220;6.528;2022-08-21T14:01:26;6.93;;;2.70;;
52964;SDS011;42923;53.220;6.528;2022-08-21T14:03:53;4.78;;;2.45;;
52964;SDS011;42923;53.220;6.528;2022-08-21T14:06:26;8.25;;;2.13;;
52964;SDS011;42923;53.220;6.528;2022-08-21T14:08:56;4.47;;;1.80;;
52964;SDS011;42923;53.220;6.528;2022-08-21T14:11:25;5.18;;;2.30;;
52964;SDS011;42923;53.220;6.528;2022-08-21T14:16:25;5.65;;;1.98;;
52964;SDS011;42923;53.220;6.528;2022-08-21T14:19:07;4.78;;;2.20;;
52964;SDS011;42923;53.220;6.528;2022-08-21T14:21:36;5.28;;;1.83;;
52964;SDS011;42923;53.220;6.528;2022-08-21T14:24:06;6.97;;;2.10;;
52964;SDS011;42923;53.220;6.528;2022-08-21T14:26:36;4.45;;;1.95;;
52964;SDS011;42923;53.220;6.528;2022-08-21T14:29:10;5.30;;;2.05;;
52964;SDS011;42923;53.220;6.528;2022-08-21T14:31:39;5.70;;;1.75;;
52964;SDS011;42923;53.220;6.528;2022-08-21T14:34:05;7.72;;;2.50;;
52964;SDS011;42923;53.220;6.528;2022-08-21T14:36:30;5.78;;;2.13;;
52964;SDS011;42923;53.220;6.528;2022-08-21T14:38:56;3.92;;;1.80;;
52964;SDS011;42923;53.220;6.528;2022-08-21T14:41:23;5.55;;;1.90;;
52964;SDS011;42923;53.220;6.528;2022-08-21T14:43:51;5.50;;;1.83;;
52964;SDS011;42923;53.220;6.528;2022-08-21T14:46:28;4.97;;;2.15;;
52964;SDS011;42923;53.220;6.528;2022-08-21T14:48:55;5.22;;;2.05;;
52964;SDS011;42923;53.220;6.528;2022-08-21T14:51:21;6.57;;;2.15;;
52964;SDS011;42923;53.220;6.528;2022-08-21T14:53:47;5.13;;;2.15;;
52964;SDS011;42923;53.220;6.528;2022-08-21T14:56:13;5.32;;;2.28;;
52964;SDS011;42923;53.220;6.528;2022-08-21T14:58:41;5.45;;;1.95;;
52964;SDS011;42923;53.220;6.528;2022-08-21T15:01:13;8.70;;;2.10;;
52964;SDS011;42923;53.220;6.528;2022-08-21T15:03:41;5.13;;;1.83;;
52964;SDS011;42923;53.220;6.528;2022-08-21T15:06:07;6.53;;;2.42;;
52964;SDS011;42923;53.220;6.528;2022-08-21T15:08:33;6.07;;;1.80;;
52964;SDS011;42923;53.220;6.528;2022-08-21T15:11:00;5.00;;;1.80;;
52964;SDS011;42923;53.220;6.528;2022-08-21T15:13:27;4.35;;;1.70;;
52964;SDS011;42923;53.220;6.528;2022-08-21T15:15:53;9.27;;;2.10;;
52964;SDS011;42923;53.220;6.528;2022-08-21T15:18:21;6.63;;;1.90;;
52964;SDS011;42923;53.220;6.528;2022-08-21T15:20:48;8.80;;;2.75;;
52964;SDS011;42923;53.220;6.528;2022-08-21T15:23:14;6.07;;;2.03;;
52964;SDS011;42923;53.220;6.528;2022-08-21T15:25:41;7.65;;;1.92;;
52964;SDS011;42923;53.220;6.528;2022-08-21T15:28:09;8.07;;;1.80;;
52964;SDS011;42923;53.220;6.528;2022-08-21T15:30:35;7.00;;;2.00;;
52964;SDS011;42923;53.220;6.528;2022-08-21T15:33:02;5.60;;;2.20;;
52964;SDS011;42923;53.220;6.528;2022-08-21T15:35:28;5.90;;;1.70;;
52964;SDS011;42923;53.220;6.528;2022-08-21T15:37:53;7.20;;;2.47;;
52964;SDS011;42923;53.220;6.528;2022-08-21T15:40:19;8.98;;;1.77;;
52964;SDS011;42923;53.220;6.528;2022-08-21T15:42:45;6.57;;;2.08;;
52964;SDS011;42923;53.220;6.528;2022-08-21T15:45:11;4.45;;;1.70;;
52964;SDS011;42923;53.220;6.528;2022-08-21T15:47:38;7.50;;;2.15;;
52964;SDS011;42923;53.220;6.528;2022-08-21T15:50:08;9.05;;;2.10;;
52964;SDS011;42923;53.220;6.528;2022-08-21T15:52:34;6.60;;;1.88;;
52964;SDS011;42923;53.220;6.528;2022-08-21T15:55:00;5.15;;;2.00;;
52964;SDS011;42923;53.220;6.528;2022-08-21T15:57:26;5.97;;;2.47;;
52964;SDS011;42923;53.220;6.528;2022-08-21T15:59:56;8.27;;;2.20;;
52964;SDS011;42923;53.220;6.528;2022-08-21T16:02:28;9.60;;;1.88;;
52964;SDS011;42923;53.220;6.528;2022-08-21T16:04:56;7.38;;;2.28;;